createdAt,value
2018-05-11T00:01:07.640Z,94838.95
2018-05-11T00:03:33.617Z,94840.34
2018-05-11T00:05:59.602Z,94850.00
2018-05-11T00:08:25.588Z,94844.08
2018-05-11T00:10:51.578Z,94852.94
2018-05-11T00:13:17.552Z,94852.36
2018-05-11T00:15:43.534Z,94853.34
2018-05-11T00:18:09.517Z,94852.94
2018-05-11T00:20:35.500Z,94855.30
2018-05-11T00:23:01.481Z,94859.64
2018-05-11T00:25:27.458Z,94858.84
2018-05-11T00:27:53.473Z,94856.48
2018-05-11T00:30:19.455Z,94859.64
2018-05-11T00:32:45.470Z,94855.50
2018-05-11T00:35:11.472Z,94853.89
2018-05-11T00:37:37.446Z,94858.03
2018-05-11T00:40:03.398Z,94852.72
2018-05-11T00:42:29.374Z,94853.48
2018-05-11T00:44:55.377Z,94857.63
2018-05-11T00:47:21.364Z,94859.41
2018-05-11T00:49:47.377Z,94860.19
2018-05-11T00:52:13.358Z,94867.91
2018-05-11T00:54:39.341Z,94869.86
2018-05-11T00:57:05.306Z,94872.41
2018-05-11T00:59:31.295Z,94862.95
2018-05-11T01:01:57.270Z,94863.36
2018-05-11T01:04:23.257Z,94862.55
2018-05-11T01:06:49.290Z,94868.66
2018-05-11T01:09:15.278Z,94866.30
2018-05-11T01:11:41.251Z,94871.02
2018-05-11T01:14:07.235Z,94873.37
2018-05-11T01:16:33.209Z,94873.37
2018-05-11T01:18:59.223Z,94870.23
2018-05-11T01:21:25.171Z,94870.81
2018-05-11T01:23:51.158Z,94872.59
2018-05-11T01:26:17.182Z,94869.83
2018-05-11T01:28:43.142Z,94867.45
2018-05-11T01:31:09.115Z,94864.89
2018-05-11T01:33:35.105Z,94865.46
2018-05-11T01:36:01.084Z,94865.29
2018-05-11T01:38:27.067Z,94868.05
2018-05-11T01:40:53.099Z,94872.19
2018-05-11T01:43:19.051Z,94868.22
2018-05-11T01:45:45.035Z,94855.60
2018-05-11T01:48:11.018Z,94858.77
2018-05-11T01:50:37.005Z,94857.38
2018-05-11T01:53:03.007Z,94859.34
2018-05-11T01:55:29.029Z,94856.75
2018-05-11T01:57:54.984Z,94859.91
2018-05-11T02:00:20.963Z,94858.53
2018-05-11T02:02:46.954Z,94860.52
2018-05-11T02:05:12.971Z,94865.64
2018-05-11T02:07:38.911Z,94864.66
2018-05-11T02:10:04.899Z,94870.19
2018-05-11T02:12:30.936Z,94863.86
2018-05-11T02:14:56.890Z,94855.17
2018-05-11T02:17:22.869Z,94858.34
2018-05-11T02:19:48.858Z,94859.31
2018-05-11T02:22:14.841Z,94862.45
2018-05-11T02:24:40.815Z,94868.17
2018-05-11T02:27:06.810Z,94870.77
2018-05-11T02:29:32.786Z,94870.16
2018-05-11T02:31:58.783Z,94873.91
2018-05-11T02:34:24.776Z,94880.80
2018-05-11T02:36:50.780Z,94880.40
2018-05-11T02:39:16.753Z,94882.76
2018-05-11T02:41:42.783Z,94883.73
2018-05-11T02:44:08.764Z,94884.72
2018-05-11T02:46:34.754Z,94890.64
2018-05-11T02:49:00.815Z,94892.42
2018-05-11T02:51:26.768Z,94884.31
2018-05-11T02:53:52.744Z,94890.44
2018-05-11T02:56:18.762Z,94899.70
2018-05-11T02:58:44.740Z,94891.42
2018-05-11T03:01:10.734Z,94895.96
2018-05-11T03:03:36.726Z,94897.52
2018-05-11T03:06:02.705Z,94902.06
2018-05-11T03:08:28.689Z,94904.82
2018-05-11T03:10:54.680Z,94904.82
2018-05-11T03:13:20.664Z,94905.80
2018-05-11T03:15:46.721Z,94910.52
2018-05-11T03:18:12.697Z,94912.70
2018-05-11T03:20:38.639Z,94910.72
2018-05-11T03:23:04.615Z,94918.42
2018-05-11T03:25:30.612Z,94922.16
2018-05-11T03:27:56.576Z,94921.77
2018-05-11T03:30:22.551Z,94926.48
2018-05-11T03:32:48.544Z,94939.30
2018-05-11T03:35:14.523Z,94934.76
2018-05-11T03:37:40.518Z,94940.86
2018-05-11T03:40:06.498Z,94945.00
2018-05-11T03:42:32.524Z,94947.76
2018-05-11T03:44:58.466Z,94947.39
2018-05-11T03:47:24.489Z,94954.29
2018-05-11T03:49:50.435Z,94956.05
2018-05-11T03:52:16.424Z,94965.33
2018-05-11T03:54:42.440Z,94963.14
2018-05-11T03:57:08.386Z,94964.93
2018-05-11T03:59:34.443Z,94970.85
2018-05-11T04:02:00.399Z,94967.72
2018-05-11T04:04:26.383Z,94978.33
2018-05-11T04:06:52.401Z,94978.33
2018-05-11T04:09:18.383Z,94967.28
2018-05-11T04:11:44.410Z,94971.03
2018-05-11T04:14:10.390Z,94977.93
2018-05-11T04:16:36.376Z,94984.83
2018-05-11T04:19:02.331Z,94992.71
2018-05-11T04:21:28.341Z,94988.57
2018-05-11T04:23:54.324Z,94990.35
2018-05-11T04:26:20.304Z,94987.59
2018-05-11T04:28:46.265Z,94990.35
2018-05-11T04:31:12.256Z,94988.16
2018-05-11T04:33:38.274Z,94993.69
2018-05-11T04:36:04.237Z,94997.62
2018-05-11T04:38:30.251Z,94996.22
2018-05-11T04:40:56.203Z,94999.55
2018-05-11T04:43:22.177Z,94999.15
2018-05-11T04:45:48.154Z,95003.69
2018-05-11T04:48:16.411Z,95009.05
2018-05-11T04:50:42.432Z,95013.96
2018-05-11T04:53:08.458Z,95013.79
2018-05-11T04:55:34.400Z,95017.13
2018-05-11T04:58:00.448Z,95024.66
2018-05-11T05:00:26.436Z,95016.55
2018-05-11T05:02:52.415Z,95025.81
2018-05-11T05:05:18.396Z,95025.23
2018-05-11T05:07:44.385Z,95025.81
2018-05-11T05:10:10.365Z,95025.81
2018-05-11T05:12:36.349Z,95032.57
2018-05-11T05:15:02.327Z,95032.37
2018-05-11T05:17:28.317Z,95033.34
2018-05-11T05:19:54.308Z,95029.61
2018-05-11T05:22:20.306Z,95031.66
2018-05-11T05:24:46.340Z,95035.42
2018-05-11T05:27:12.300Z,95032.25
2018-05-11T05:29:38.314Z,95039.56
2018-05-11T05:32:04.337Z,95044.74
2018-05-11T05:34:30.318Z,95028.11
2018-05-11T05:36:56.380Z,95022.36
2018-05-11T05:39:22.425Z,95024.31
2018-05-11T05:41:48.409Z,95025.47
2018-05-11T05:44:14.360Z,95029.20
2018-05-11T05:46:40.366Z,95032.37
2018-05-11T05:49:06.392Z,95030.81
2018-05-11T05:51:32.391Z,95029.20
2018-05-11T05:53:58.442Z,95042.84
2018-05-11T05:56:24.428Z,95036.11
2018-05-11T05:58:50.451Z,95034.59
2018-05-11T06:01:16.443Z,95039.94
2018-05-11T06:03:42.451Z,95037.55
2018-05-11T06:06:08.434Z,95037.78
2018-05-11T06:08:34.421Z,95042.50
2018-05-11T06:11:00.398Z,95053.54
2018-05-11T06:13:26.381Z,95050.98
2018-05-11T06:15:52.371Z,95049.23
2018-05-11T06:18:18.410Z,95055.90
2018-05-11T06:20:44.417Z,95057.28
2018-05-11T06:23:10.378Z,95069.94
2018-05-11T06:25:36.353Z,95068.96
2018-05-11T06:28:02.345Z,95064.81
2018-05-11T06:30:28.347Z,95067.55
2018-05-11T06:32:54.327Z,95071.48
2018-05-11T06:35:20.308Z,95077.27
2018-05-11T06:37:46.326Z,95083.74
2018-05-11T06:40:12.309Z,95086.67
2018-05-11T06:42:38.318Z,95088.86
2018-05-11T06:45:04.275Z,95090.38
2018-05-11T06:47:30.261Z,95085.87
2018-05-11T06:49:56.273Z,95081.92
2018-05-11T06:52:22.301Z,95078.94
2018-05-11T06:54:48.261Z,95075.02
2018-05-11T06:57:14.396Z,95071.05
2018-05-11T06:59:40.405Z,95074.42
2018-05-11T07:02:06.412Z,95088.39
2018-05-11T07:04:32.394Z,95083.05
2018-05-11T07:06:58.377Z,95088.97
2018-05-11T07:09:24.367Z,95096.48
2018-05-11T07:11:50.384Z,95092.70
2018-05-11T07:14:16.344Z,95106.31
2018-05-11T07:16:42.331Z,95107.69
2018-05-11T07:19:08.306Z,95103.55
2018-05-11T07:21:34.291Z,95101.97
2018-05-11T07:24:00.271Z,95107.48
2018-05-11T07:26:26.283Z,95112.23
2018-05-11T07:28:52.269Z,95112.23
2018-05-11T07:31:18.233Z,95118.33
2018-05-11T07:33:44.229Z,95117.52
2018-05-11T07:36:10.247Z,95123.65
2018-05-11T07:38:36.200Z,95120.48
2018-05-11T07:41:02.216Z,95119.67
2018-05-11T07:43:28.308Z,95123.81
2018-05-11T07:45:54.178Z,95125.60
2018-05-11T07:48:20.159Z,95126.98
2018-05-11T07:50:46.172Z,95130.95
2018-05-11T07:53:12.154Z,95132.09
2018-05-11T07:55:38.177Z,95135.84
2018-05-11T07:58:04.172Z,95143.14
2018-05-11T08:00:30.158Z,95145.09
2018-05-11T08:02:56.166Z,95143.95
2018-05-11T08:05:22.111Z,95145.91
2018-05-11T08:07:48.093Z,95148.66
2018-05-11T08:10:14.057Z,95145.91
2018-05-11T08:12:40.041Z,95147.28
2018-05-11T08:15:06.041Z,95141.36
2018-05-11T08:17:32.019Z,95150.25
2018-05-11T08:19:58.011Z,95139.38
2018-05-11T08:22:24.002Z,95137.42
2018-05-11T08:24:50.064Z,95141.97
2018-05-11T08:27:16.007Z,95135.23
2018-05-11T08:29:42.012Z,95134.66
2018-05-11T08:32:07.960Z,95136.44
2018-05-11T08:34:33.946Z,95140.18
2018-05-11T08:36:59.924Z,95134.25
2018-05-11T08:39:25.905Z,95134.83
2018-05-11T08:41:51.892Z,95139.38
2018-05-11T08:44:17.907Z,95136.61
2018-05-11T08:46:43.898Z,95139.95
2018-05-11T08:49:09.882Z,95130.08
2018-05-11T08:51:35.855Z,95128.70
2018-05-11T08:54:01.864Z,95129.10
2018-05-11T08:56:27.811Z,95127.92
2018-05-11T08:58:53.796Z,95128.50
2018-05-11T09:01:19.801Z,95129.88
2018-05-11T09:03:45.780Z,95132.23
2018-05-11T09:06:11.767Z,95132.23
2018-05-11T09:08:37.813Z,95132.47
2018-05-11T09:11:03.744Z,95129.10
2018-05-11T09:13:29.765Z,95129.67
2018-05-11T09:15:55.772Z,95129.10
2018-05-11T09:18:21.722Z,95127.49
2018-05-11T09:20:47.764Z,95124.33
2018-05-11T09:23:13.710Z,95122.94
2018-05-11T09:25:39.698Z,95121.56
2018-05-11T09:28:05.706Z,95125.13
2018-05-11T09:30:31.744Z,95128.70
2018-05-11T09:32:57.728Z,95121.39
2018-05-11T09:35:23.672Z,95129.48
2018-05-11T09:37:49.675Z,95129.67
2018-05-11T09:40:15.696Z,95130.83
2018-05-11T09:42:41.642Z,95135.23
2018-05-11T09:45:07.625Z,95130.11
2018-05-11T09:47:33.654Z,95132.06
2018-05-11T09:49:59.646Z,95134.25
2018-05-11T09:52:25.658Z,95134.25
2018-05-11T09:54:51.633Z,95136.44
2018-05-11T09:57:17.644Z,95131.49
2018-05-11T09:59:43.618Z,95127.36
2018-05-11T10:02:09.661Z,95132.47
2018-05-11T10:04:35.644Z,95132.23
2018-05-11T10:07:01.669Z,95127.12
2018-05-11T10:09:27.648Z,95127.76
2018-05-11T10:11:53.597Z,95133.89
2018-05-11T10:14:19.582Z,95133.08
2018-05-11T10:16:45.583Z,95130.11
2018-05-11T10:19:11.555Z,95124.19
2018-05-11T10:21:37.572Z,95131.90
2018-05-11T10:24:03.553Z,95139.38
2018-05-11T10:26:29.543Z,95131.66
2018-05-11T10:28:55.541Z,95131.66
2018-05-11T10:31:21.477Z,95132.06
2018-05-11T10:33:47.451Z,95124.96
2018-05-11T10:36:13.448Z,95120.66
2018-05-11T10:38:39.432Z,95120.45
2018-05-11T10:41:05.456Z,95126.41
2018-05-11T10:43:31.435Z,95122.03
2018-05-11T10:45:57.641Z,95116.58
2018-05-11T10:48:23.659Z,95120.31
2018-05-11T10:50:49.607Z,95121.93
2018-05-11T10:53:15.617Z,95120.58
2018-05-11T10:55:41.597Z,95117.22
2018-05-11T10:58:07.586Z,95116.20
2018-05-11T11:00:33.607Z,95116.41
2018-05-11T11:02:59.586Z,95116.44
2018-05-11T11:05:25.613Z,95104.42
2018-05-11T11:07:51.600Z,95106.00
2018-05-11T11:10:17.551Z,95102.06
2018-05-11T11:12:43.541Z,95094.18
2018-05-11T11:15:09.551Z,95088.92
2018-05-11T11:17:35.496Z,95085.73
2018-05-11T11:20:01.579Z,95087.48
2018-05-11T11:22:27.480Z,95087.85
2018-05-11T11:24:53.464Z,95087.82
2018-05-11T11:27:19.463Z,95082.09
2018-05-11T11:29:45.447Z,95076.17
2018-05-11T11:32:11.456Z,95073.61
2018-05-11T11:34:37.508Z,95077.95
2018-05-11T11:37:03.515Z,95077.15
2018-05-11T11:39:29.505Z,95077.72
2018-05-11T11:41:55.582Z,95074.77
2018-05-11T11:44:21.504Z,95080.28
2018-05-11T11:46:47.511Z,95078.91
2018-05-11T11:49:13.485Z,95066.88
2018-05-11T11:51:39.472Z,95074.56
2018-05-11T11:54:05.459Z,95062.34
2018-05-11T11:56:31.513Z,95060.95
2018-05-11T11:58:57.444Z,95068.87
2018-05-11T12:01:23.434Z,95074.77
2018-05-11T12:03:49.456Z,95085.20
2018-05-11T12:06:15.485Z,95090.52
2018-05-11T12:08:41.431Z,95098.16
2018-05-11T12:11:07.415Z,95104.72
2018-05-11T12:13:33.437Z,95098.56
2018-05-11T12:15:59.397Z,95094.48
2018-05-11T12:18:25.381Z,95111.29
2018-05-11T12:20:51.366Z,95111.49
2018-05-11T12:23:17.408Z,95106.98
2018-05-11T12:25:43.414Z,95136.95
2018-05-11T12:28:09.394Z,95130.28
2018-05-11T12:30:35.347Z,95149.64
2018-05-11T12:33:01.369Z,95159.51
2018-05-11T12:35:27.310Z,95157.59
2018-05-11T12:37:53.320Z,95167.42
2018-05-11T12:40:19.340Z,95172.61
2018-05-11T12:42:45.291Z,95175.13
2018-05-11T12:45:11.384Z,95177.25
2018-05-11T12:47:37.400Z,95174.86
2018-05-11T12:50:03.418Z,95165.67
2018-05-11T12:52:29.394Z,95158.46
2018-05-11T12:54:55.408Z,95152.50
2018-05-11T12:57:21.406Z,95151.73
2018-05-11T12:59:47.391Z,95160.02
2018-05-11T13:02:13.385Z,95168.53
2018-05-11T13:04:39.396Z,95159.04
2018-05-11T13:07:05.457Z,95156.88
2018-05-11T13:09:31.400Z,95172.44
2018-05-11T13:11:57.381Z,95194.59
2018-05-11T13:14:23.398Z,95202.95
2018-05-11T13:16:49.364Z,95206.08
2018-05-11T13:19:15.347Z,95207.39
2018-05-11T13:21:41.329Z,95206.08
2018-05-11T13:24:07.352Z,95201.77
2018-05-11T13:26:33.339Z,95200.80
2018-05-11T13:28:59.371Z,95201.40
2018-05-11T13:31:25.439Z,95194.63
2018-05-11T13:33:51.440Z,95183.98
2018-05-11T13:36:17.454Z,95168.80
2018-05-11T13:38:43.446Z,95165.00
2018-05-11T13:41:09.420Z,95165.00
2018-05-11T13:43:35.463Z,95160.75
2018-05-11T13:46:01.508Z,95152.37
2018-05-11T13:48:27.542Z,95146.11
2018-05-11T13:50:53.514Z,95141.89
2018-05-11T13:53:19.492Z,95152.84
2018-05-11T13:55:45.509Z,95150.86
2018-05-11T13:58:11.487Z,95149.77
2018-05-11T14:00:37.501Z,95158.73
2018-05-11T14:03:03.460Z,95157.17
2018-05-11T14:05:29.490Z,95160.17
2018-05-11T14:07:55.464Z,95169.41
2018-05-11T14:10:21.521Z,95166.74
2018-05-11T14:12:48.037Z,95170.11
2018-05-11T14:15:14.777Z,95171.05
2018-05-11T14:17:40.803Z,95172.10
2018-05-11T14:20:06.763Z,95184.16
2018-05-11T14:22:32.796Z,95187.52
2018-05-11T14:24:58.843Z,95183.95
2018-05-11T14:27:24.741Z,95183.02
2018-05-11T14:29:50.753Z,95188.30
2018-05-11T14:32:16.736Z,95185.57
2018-05-11T14:34:42.739Z,95182.84
2018-05-11T14:37:08.750Z,95177.92
2018-05-11T14:39:34.851Z,95173.78
2018-05-11T14:42:00.834Z,95177.92
2018-05-11T14:44:26.837Z,95179.47
2018-05-11T14:46:52.870Z,95179.51
2018-05-11T14:49:18.860Z,95177.21
2018-05-11T14:51:44.841Z,95186.24
2018-05-11T14:54:10.836Z,95177.38
2018-05-11T14:56:36.815Z,95178.39
2018-05-11T14:59:02.827Z,95173.30
2018-05-11T15:01:28.837Z,95179.44
2018-05-11T15:03:54.791Z,95182.20
2018-05-11T15:06:20.917Z,95190.11
2018-05-11T15:08:46.936Z,95187.11
2018-05-11T15:11:12.931Z,95181.36
2018-05-11T15:13:38.934Z,95172.84
2018-05-11T15:16:04.925Z,95172.27
2018-05-11T15:18:31.046Z,95168.99
2018-05-11T15:20:57.034Z,95166.23
2018-05-11T15:23:23.022Z,95171.35
2018-05-11T15:25:49.037Z,95163.33
2018-05-11T15:28:15.041Z,95161.69
2018-05-11T15:30:41.024Z,95164.27
2018-05-11T15:33:07.041Z,95166.66
2018-05-11T15:35:33.026Z,95173.67
2018-05-11T15:37:59.052Z,95176.27
2018-05-11T15:40:25.024Z,95181.77
2018-05-11T15:42:51.028Z,95179.20
2018-05-11T15:45:17.078Z,95175.87
2018-05-11T15:47:43.045Z,95172.39
2018-05-11T15:50:09.034Z,95172.73
2018-05-11T15:52:35.078Z,95174.58
2018-05-11T15:55:01.070Z,95178.73
2018-05-11T15:57:27.036Z,95180.88
2018-05-11T15:59:53.046Z,95179.13
2018-05-11T16:02:19.018Z,95173.50
2018-05-11T16:04:45.559Z,95178.89
2018-05-11T16:07:11.533Z,95183.13
2018-05-11T16:09:37.508Z,95187.11
2018-05-11T16:12:03.499Z,95182.59
2018-05-11T16:14:29.743Z,95177.75
2018-05-11T16:16:55.598Z,95176.83
2018-05-11T16:19:21.584Z,95167.73
2018-05-11T16:21:47.725Z,95169.32
2018-05-11T16:24:13.738Z,95174.88
2018-05-11T16:26:39.704Z,95179.28
2018-05-11T16:29:05.781Z,95187.20
2018-05-11T16:31:32.041Z,95182.89
2018-05-11T16:33:58.846Z,95182.31
2018-05-11T16:36:27.318Z,95189.13
2018-05-11T16:38:53.306Z,95187.17
2018-05-11T16:41:19.639Z,95187.14
2018-05-11T16:43:45.781Z,95183.56
2018-05-11T16:46:11.986Z,95184.31
2018-05-11T16:48:38.668Z,95183.91
2018-05-11T16:51:04.793Z,95186.03
2018-05-11T16:53:30.955Z,95180.30
2018-05-11T16:55:56.981Z,95189.00
2018-05-11T16:58:22.966Z,95187.42
2018-05-11T17:00:49.335Z,95176.33
2018-05-11T17:03:15.315Z,95169.97
2018-05-11T17:05:41.259Z,95171.98
2018-05-11T17:08:08.344Z,95168.76
2018-05-11T17:10:34.361Z,95169.91
2018-05-11T17:13:00.363Z,95165.36
2018-05-11T17:15:26.341Z,95163.17
2018-05-11T17:17:52.331Z,95166.17
2018-05-11T17:20:18.320Z,95168.99
2018-05-11T17:22:44.358Z,95164.64
2018-05-11T17:25:10.325Z,95161.95
2018-05-11T17:27:36.323Z,95149.69
2018-05-11T17:30:02.354Z,95164.45
2018-05-11T17:32:28.292Z,95164.88
2018-05-11T17:34:54.306Z,95165.89
2018-05-11T17:37:20.260Z,95169.39
2018-05-11T17:39:46.464Z,95170.03
2018-05-11T17:42:12.432Z,95166.16
2018-05-11T17:44:38.481Z,95167.84
2018-05-11T17:47:04.465Z,95175.16
2018-05-11T17:49:30.428Z,95185.33
2018-05-11T17:51:59.488Z,95192.44
2018-05-11T17:54:25.463Z,95198.20
2018-05-11T17:56:51.478Z,95196.98
2018-05-11T17:59:17.446Z,95196.78
2018-05-11T18:01:43.492Z,95202.88
2018-05-11T18:04:09.504Z,95197.16
2018-05-11T18:06:35.602Z,95200.13
2018-05-11T18:09:01.526Z,95206.63
2018-05-11T18:11:27.516Z,95206.02
2018-05-11T18:13:53.468Z,95202.14
2018-05-11T18:16:19.450Z,95208.58
2018-05-11T18:18:45.448Z,95209.72
2018-05-11T18:21:11.464Z,95207.36
2018-05-11T18:23:37.418Z,95214.03
2018-05-11T18:26:03.401Z,95220.80
2018-05-11T18:28:29.409Z,95220.77
2018-05-11T18:30:55.402Z,95221.31
2018-05-11T18:33:21.365Z,95223.83
2018-05-11T18:35:47.405Z,95225.58
2018-05-11T18:38:13.381Z,95227.98
2018-05-11T18:40:39.403Z,95220.47
2018-05-11T18:43:05.422Z,95226.87
2018-05-11T18:45:31.506Z,95231.62
2018-05-11T18:47:57.467Z,95231.81
2018-05-11T18:50:23.511Z,95236.20
2018-05-11T18:52:49.492Z,95235.80
2018-05-11T18:55:15.462Z,95245.26
2018-05-11T18:57:41.444Z,95249.80
2018-05-11T19:00:07.426Z,95255.97
2018-05-11T19:02:33.446Z,95257.35
2018-05-11T19:04:59.399Z,95257.86
2018-05-11T19:07:25.415Z,95257.69
2018-05-11T19:09:51.394Z,95259.47
2018-05-11T19:12:17.410Z,95261.42
2018-05-11T19:14:43.396Z,95257.66
2018-05-11T19:17:09.403Z,95264.83
2018-05-11T19:19:35.408Z,95264.70
2018-05-11T19:22:01.388Z,95260.79
2018-05-11T19:24:27.394Z,95261.53
2018-05-11T19:26:53.375Z,95265.50
2018-05-11T19:29:19.361Z,95262.47
2018-05-11T19:31:45.393Z,95262.51
2018-05-11T19:34:11.403Z,95265.67
2018-05-11T19:36:37.379Z,95262.06
2018-05-11T19:39:03.364Z,95265.27
2018-05-11T19:41:29.501Z,95264.94
2018-05-11T19:43:55.479Z,95269.05
2018-05-11T19:46:21.531Z,95268.64
2018-05-11T19:48:47.512Z,95262.55
2018-05-11T19:51:13.528Z,95257.35
2018-05-11T19:53:39.487Z,95260.34
2018-05-11T19:56:05.552Z,95253.21
2018-05-11T19:58:31.489Z,95251.19
2018-05-11T20:00:57.474Z,95257.28
2018-05-11T20:03:23.482Z,95260.11
2018-05-11T20:05:49.482Z,95262.27
2018-05-11T20:08:15.440Z,95265.80
2018-05-11T20:10:41.425Z,95266.95
2018-05-11T20:13:07.450Z,95267.36
2018-05-11T20:15:33.443Z,95264.02
2018-05-11T20:17:59.427Z,95261.70
2018-05-11T20:20:25.442Z,95256.38
2018-05-11T20:22:51.396Z,95258.70
2018-05-11T20:25:17.389Z,95262.06
2018-05-11T20:27:43.401Z,95262.30
2018-05-11T20:30:09.361Z,95260.55
2018-05-11T20:32:35.435Z,95257.92
2018-05-11T20:35:01.375Z,95263.38
2018-05-11T20:37:27.417Z,95265.91
2018-05-11T20:39:53.356Z,95270.41
2018-05-11T20:42:19.373Z,95273.55
2018-05-11T20:44:45.360Z,95273.14
2018-05-11T20:47:11.374Z,95274.52
2018-05-11T20:49:37.341Z,95271.15
2018-05-11T20:52:03.329Z,95266.77
2018-05-11T20:54:29.318Z,95263.81
2018-05-11T20:56:55.295Z,95264.21
2018-05-11T20:59:21.320Z,95259.83
2018-05-11T21:01:47.309Z,95266.73
2018-05-11T21:04:13.284Z,95277.78
2018-05-11T21:06:39.267Z,95274.82
2018-05-11T21:09:05.279Z,95269.87
2018-05-11T21:11:31.264Z,95273.77
2018-05-11T21:13:57.209Z,95282.66
2018-05-11T21:16:23.218Z,95277.75
2018-05-11T21:18:49.177Z,95277.30
2018-05-11T21:21:15.163Z,95274.58
2018-05-11T21:23:41.146Z,95280.84
2018-05-11T21:26:07.131Z,95281.25
2018-05-11T21:28:33.109Z,95284.98
2018-05-11T21:30:59.091Z,95289.90
2018-05-11T21:33:25.169Z,95284.38
2018-05-11T21:35:51.112Z,95285.34
2018-05-11T21:38:17.092Z,95287.30
2018-05-11T21:40:43.036Z,95287.88
2018-05-11T21:43:09.063Z,95287.27
2018-05-11T21:45:35.039Z,95289.22
2018-05-11T21:48:01.023Z,95289.02
2018-05-11T21:50:27.035Z,95288.04
2018-05-11T21:52:52.999Z,95292.75
2018-05-11T21:55:18.985Z,95296.89
2018-05-11T21:57:45.001Z,95299.25
2018-05-11T22:00:10.955Z,95302.98
2018-05-11T22:02:36.964Z,95299.45
2018-05-11T22:05:02.954Z,95294.91
2018-05-11T22:07:28.938Z,95294.67
2018-05-11T22:09:54.927Z,95293.89
2018-05-11T22:12:20.904Z,95287.77
2018-05-11T22:14:46.919Z,95283.42
2018-05-11T22:17:12.873Z,95291.13
2018-05-11T22:19:38.855Z,95290.32
2018-05-11T22:22:04.865Z,95287.32
2018-05-11T22:24:30.842Z,95285.56
2018-05-11T22:26:56.852Z,95283.18
2018-05-11T22:29:22.796Z,95288.33
2018-05-11T22:31:48.783Z,95287.52
2018-05-11T22:34:14.799Z,95295.00
2018-05-11T22:36:40.813Z,95289.47
2018-05-11T22:39:06.772Z,95292.03
2018-05-11T22:41:32.754Z,95290.65
2018-05-11T22:43:58.764Z,95288.05
2018-05-11T22:46:24.715Z,95281.16
2018-05-11T22:48:50.698Z,95276.20
2018-05-11T22:51:16.684Z,95279.94
2018-05-11T22:53:42.657Z,95276.80
2018-05-11T22:56:08.665Z,95280.95
2018-05-11T22:58:34.616Z,95278.36
2018-05-11T23:01:00.644Z,95282.50
2018-05-11T23:03:26.615Z,95279.91
2018-05-11T23:05:52.570Z,95281.48
2018-05-11T23:08:18.550Z,95282.29
2018-05-11T23:10:44.529Z,95279.91
2018-05-11T23:13:10.550Z,95275.96
2018-05-11T23:15:36.540Z,95273.77
2018-05-11T23:18:02.490Z,95275.55
2018-05-11T23:20:28.467Z,95282.45
2018-05-11T23:22:54.487Z,95278.11
2018-05-11T23:25:20.462Z,95285.79
2018-05-11T23:27:46.523Z,95279.66
2018-05-11T23:30:12.458Z,95277.30
2018-05-11T23:32:38.435Z,95282.02
2018-05-11T23:35:04.490Z,95273.73
2018-05-11T23:37:30.457Z,95276.09
2018-05-11T23:39:56.402Z,95280.23
2018-05-11T23:42:22.654Z,95278.07
2018-05-11T23:44:48.640Z,95284.97
2018-05-11T23:47:14.598Z,95284.97
2018-05-11T23:49:40.632Z,95291.47
2018-05-11T23:52:06.583Z,95290.66
2018-05-11T23:54:32.532Z,95290.66
2018-05-11T23:56:58.520Z,95296.35
2018-05-11T23:59:24.499Z,95289.45
